sensor_id;sensor_type;location;lat;lon;timestamp;P1;durP1;ratioP1;P2;durP2;ratioP2
56381;SDS011;50261;51.150;4.470;2023-11-19T00:02:21;6.13;;;2.88;;
56381;SDS011;50261;51.150;4.470;2023-11-19T00:04:47;6.70;;;2.90;;
56381;SDS011;50261;51.150;4.470;2023-11-19T00:07:13;7.75;;;2.85;;
56381;SDS011;50261;51.150;4.470;2023-11-19T00:09:39;6.38;;;2.95;;
56381;SDS011;50261;51.150;4.470;2023-11-19T00:12:05;7.50;;;2.75;;
56381;SDS011;50261;51.150;4.470;2023-11-19T00:14:32;12.18;;;3.80;;
56381;SDS011;50261;51.150;4.470;2023-11-19T00:16:57;5.53;;;2.70;;
56381;SDS011;50261;51.150;4.470;2023-11-19T00:19:23;10.30;;;2.92;;
56381;SDS011;50261;51.150;4.470;2023-11-19T00:21:49;9.38;;;2.28;;
56381;SDS011;50261;51.150;4.470;2023-11-19T00:24:14;9.55;;;2.67;;
56381;SDS011;50261;51.150;4.470;2023-11-19T00:26:43;7.40;;;2.20;;
56381;SDS011;50261;51.150;4.470;2023-11-19T00:29:09;8.85;;;3.45;;
56381;SDS011;50261;51.150;4.470;2023-11-19T00:31:35;11.02;;;2.55;;
56381;SDS011;50261;51.150;4.470;2023-11-19T00:34:01;10.27;;;2.83;;
56381;SDS011;50261;51.150;4.470;2023-11-19T00:36:27;8.45;;;2.17;;
56381;SDS011;50261;51.150;4.470;2023-11-19T00:38:53;11.57;;;2.35;;
56381;SDS011;50261;51.150;4.470;2023-11-19T00:41:19;14.20;;;2.80;;
56381;SDS011;50261;51.150;4.470;2023-11-19T00:43:45;12.52;;;2.63;;
56381;SDS011;50261;51.150;4.470;2023-11-19T00:46:10;11.55;;;2.65;;
56381;SDS011;50261;51.150;4.470;2023-11-19T00:48:36;10.05;;;2.05;;
56381;SDS011;50261;51.150;4.470;2023-11-19T00:51:02;14.82;;;2.67;;
56381;SDS011;50261;51.150;4.470;2023-11-19T00:53:29;11.82;;;3.35;;
56381;SDS011;50261;51.150;4.470;2023-11-19T00:55:55;10.88;;;2.42;;
56381;SDS011;50261;51.150;4.470;2023-11-19T00:58:21;14.35;;;2.92;;
56381;SDS011;50261;51.150;4.470;2023-11-19T01:00:47;11.25;;;2.40;;
56381;SDS011;50261;51.150;4.470;2023-11-19T01:03:13;15.35;;;1.77;;
56381;SDS011;50261;51.150;4.470;2023-11-19T01:05:40;14.50;;;2.90;;
56381;SDS011;50261;51.150;4.470;2023-11-19T01:08:06;12.85;;;2.72;;
56381;SDS011;50261;51.150;4.470;2023-11-19T01:10:32;19.65;;;2.45;;
56381;SDS011;50261;51.150;4.470;2023-11-19T01:12:59;13.27;;;2.22;;
56381;SDS011;50261;51.150;4.470;2023-11-19T01:15:25;12.40;;;2.65;;
56381;SDS011;50261;51.150;4.470;2023-11-19T01:17:51;13.93;;;2.28;;
56381;SDS011;50261;51.150;4.470;2023-11-19T01:20:17;19.30;;;2.72;;
56381;SDS011;50261;51.150;4.470;2023-11-19T01:22:42;15.85;;;3.08;;
56381;SDS011;50261;51.150;4.470;2023-11-19T01:25:09;14.02;;;2.15;;
56381;SDS011;50261;51.150;4.470;2023-11-19T01:27:34;17.02;;;3.17;;
56381;SDS011;50261;51.150;4.470;2023-11-19T01:30:01;14.25;;;2.30;;
56381;SDS011;50261;51.150;4.470;2023-11-19T01:32:28;28.60;;;4.10;;
56381;SDS011;50261;51.150;4.470;2023-11-19T01:34:54;21.77;;;3.50;;
56381;SDS011;50261;51.150;4.470;2023-11-19T01:37:19;14.05;;;2.60;;
56381;SDS011;50261;51.150;4.470;2023-11-19T01:39:45;20.17;;;3.35;;
56381;SDS011;50261;51.150;4.470;2023-11-19T01:42:11;17.35;;;2.47;;
56381;SDS011;50261;51.150;4.470;2023-11-19T01:44:41;15.55;;;2.97;;
56381;SDS011;50261;51.150;4.470;2023-11-19T01:47:07;16.73;;;3.13;;
56381;SDS011;50261;51.150;4.470;2023-11-19T01:49:33;18.33;;;3.10;;
56381;SDS011;50261;51.150;4.470;2023-11-19T01:51:59;15.20;;;3.50;;
56381;SDS011;50261;51.150;4.470;2023-11-19T01:54:25;22.13;;;3.92;;
56381;SDS011;50261;51.150;4.470;2023-11-19T01:56:52;17.95;;;3.38;;
56381;SDS011;50261;51.150;4.470;2023-11-19T01:59:18;27.52;;;3.47;;
56381;SDS011;50261;51.150;4.470;2023-11-19T02:01:53;17.85;;;2.85;;
56381;SDS011;50261;51.150;4.470;2023-11-19T02:04:19;19.80;;;3.50;;
56381;SDS011;50261;51.150;4.470;2023-11-19T02:06:45;18.50;;;3.42;;
56381;SDS011;50261;51.150;4.470;2023-11-19T02:09:13;24.27;;;3.58;;
56381;SDS011;50261;51.150;4.470;2023-11-19T02:11:39;21.63;;;4.18;;
56381;SDS011;50261;51.150;4.470;2023-11-19T02:14:05;20.08;;;4.20;;
56381;SDS011;50261;51.150;4.470;2023-11-19T02:16:32;22.10;;;4.43;;
56381;SDS011;50261;51.150;4.470;2023-11-19T02:18:57;24.35;;;3.60;;
56381;SDS011;50261;51.150;4.470;2023-11-19T02:21:23;26.83;;;3.72;;
56381;SDS011;50261;51.150;4.470;2023-11-19T02:23:50;25.90;;;4.05;;
56381;SDS011;50261;51.150;4.470;2023-11-19T02:28:44;18.23;;;4.18;;
56381;SDS011;50261;51.150;4.470;2023-11-19T02:31:10;16.58;;;2.63;;
56381;SDS011;50261;51.150;4.470;2023-11-19T02:33:39;23.92;;;4.03;;
56381;SDS011;50261;51.150;4.470;2023-11-19T02:36:05;23.00;;;4.30;;
56381;SDS011;50261;51.150;4.470;2023-11-19T02:38:32;24.88;;;4.00;;
56381;SDS011;50261;51.150;4.470;2023-11-19T02:40:58;20.83;;;3.45;;
56381;SDS011;50261;51.150;4.470;2023-11-19T02:43:24;20.30;;;4.72;;
56381;SDS011;50261;51.150;4.470;2023-11-19T02:45:49;23.10;;;3.15;;
56381;SDS011;50261;51.150;4.470;2023-11-19T02:48:16;23.55;;;3.30;;
56381;SDS011;50261;51.150;4.470;2023-11-19T02:50:42;23.85;;;3.20;;
56381;SDS011;50261;51.150;4.470;2023-11-19T02:53:07;17.65;;;2.88;;
56381;SDS011;50261;51.150;4.470;2023-11-19T02:55:33;24.52;;;3.08;;
56381;SDS011;50261;51.150;4.470;2023-11-19T02:58:04;21.05;;;4.10;;
56381;SDS011;50261;51.150;4.470;2023-11-19T03:00:45;23.88;;;3.35;;
56381;SDS011;50261;51.150;4.470;2023-11-19T03:03:23;33.05;;;4.20;;
56381;SDS011;50261;51.150;4.470;2023-11-19T03:05:54;29.40;;;4.22;;
56381;SDS011;50261;51.150;4.470;2023-11-19T03:08:20;32.53;;;4.90;;
56381;SDS011;50261;51.150;4.470;2023-11-19T03:10:46;17.85;;;3.10;;
56381;SDS011;50261;51.150;4.470;2023-11-19T03:13:13;29.83;;;4.70;;
56381;SDS011;50261;51.150;4.470;2023-11-19T03:15:44;27.33;;;4.18;;
56381;SDS011;50261;51.150;4.470;2023-11-19T03:18:11;16.58;;;2.55;;
56381;SDS011;50261;51.150;4.470;2023-11-19T03:20:37;26.45;;;4.18;;
56381;SDS011;50261;51.150;4.470;2023-11-19T03:23:02;23.00;;;3.78;;
56381;SDS011;50261;51.150;4.470;2023-11-19T03:25:28;21.67;;;3.88;;
56381;SDS011;50261;51.150;4.470;2023-11-19T03:28:00;24.70;;;5.47;;
56381;SDS011;50261;51.150;4.470;2023-11-19T03:30:27;31.70;;;4.15;;
56381;SDS011;50261;51.150;4.470;2023-11-19T03:32:56;25.35;;;4.65;;
56381;SDS011;50261;51.150;4.470;2023-11-19T03:35:22;27.45;;;3.70;;
56381;SDS011;50261;51.150;4.470;2023-11-19T03:37:49;23.08;;;4.32;;
56381;SDS011;50261;51.150;4.470;2023-11-19T03:40:14;29.10;;;5.13;;
56381;SDS011;50261;51.150;4.470;2023-11-19T03:42:40;23.48;;;4.60;;
56381;SDS011;50261;51.150;4.470;2023-11-19T03:45:09;27.88;;;5.68;;
56381;SDS011;50261;51.150;4.470;2023-11-19T03:47:35;16.00;;;3.15;;
56381;SDS011;50261;51.150;4.470;2023-11-19T03:50:00;23.25;;;4.68;;
56381;SDS011;50261;51.150;4.470;2023-11-19T03:52:26;24.20;;;3.65;;
56381;SDS011;50261;51.150;4.470;2023-11-19T03:54:52;32.20;;;4.50;;
56381;SDS011;50261;51.150;4.470;2023-11-19T03:57:19;32.33;;;4.10;;
56381;SDS011;50261;51.150;4.470;2023-11-19T03:59:45;25.45;;;4.50;;
56381;SDS011;50261;51.150;4.470;2023-11-19T04:02:11;20.95;;;3.58;;
56381;SDS011;50261;51.150;4.470;2023-11-19T04:04:37;28.55;;;4.07;;
56381;SDS011;50261;51.150;4.470;2023-11-19T04:07:04;23.80;;;3.97;;
56381;SDS011;50261;51.150;4.470;2023-11-19T04:09:30;20.17;;;4.53;;
56381;SDS011;50261;51.150;4.470;2023-11-19T04:11:59;32.10;;;5.05;;
56381;SDS011;50261;51.150;4.470;2023-11-19T04:14:26;24.30;;;3.65;;
56381;SDS011;50261;51.150;4.470;2023-11-19T04:16:52;21.88;;;3.55;;
56381;SDS011;50261;51.150;4.470;2023-11-19T04:19:18;31.27;;;4.28;;
56381;SDS011;50261;51.150;4.470;2023-11-19T04:21:44;30.77;;;4.57;;
56381;SDS011;50261;51.150;4.470;2023-11-19T04:24:10;22.75;;;3.65;;
56381;SDS011;50261;51.150;4.470;2023-11-19T04:26:40;35.92;;;4.95;;
56381;SDS011;50261;51.150;4.470;2023-11-19T04:29:08;28.67;;;4.68;;
56381;SDS011;50261;51.150;4.470;2023-11-19T04:31:34;28.77;;;4.38;;
56381;SDS011;50261;51.150;4.470;2023-11-19T04:33:59;28.38;;;5.75;;
56381;SDS011;50261;51.150;4.470;2023-11-19T04:36:25;30.45;;;4.60;;
56381;SDS011;50261;51.150;4.470;2023-11-19T04:38:51;27.10;;;4.65;;
56381;SDS011;50261;51.150;4.470;2023-11-19T04:41:17;29.67;;;4.25;;
56381;SDS011;50261;51.150;4.470;2023-11-19T04:43:43;28.38;;;4.60;;
56381;SDS011;50261;51.150;4.470;2023-11-19T04:46:09;27.15;;;5.03;;
56381;SDS011;50261;51.150;4.470;2023-11-19T04:48:35;26.13;;;5.30;;
56381;SDS011;50261;51.150;4.470;2023-11-19T04:51:00;29.02;;;4.07;;
56381;SDS011;50261;51.150;4.470;2023-11-19T04:53:26;30.10;;;4.72;;
56381;SDS011;50261;51.150;4.470;2023-11-19T04:55:52;31.08;;;3.92;;
56381;SDS011;50261;51.150;4.470;2023-11-19T04:58:17;16.55;;;3.00;;
56381;SDS011;50261;51.150;4.470;2023-11-19T05:00:44;30.40;;;3.85;;
56381;SDS011;50261;51.150;4.470;2023-11-19T05:03:10;26.67;;;5.13;;
56381;SDS011;50261;51.150;4.470;2023-11-19T05:05:36;29.90;;;4.45;;
56381;SDS011;50261;51.150;4.470;2023-11-19T05:08:02;30.75;;;4.90;;
56381;SDS011;50261;51.150;4.470;2023-11-19T05:10:28;28.58;;;3.78;;
56381;SDS011;50261;51.150;4.470;2023-11-19T05:12:53;26.35;;;4.32;;
56381;SDS011;50261;51.150;4.470;2023-11-19T05:15:21;23.92;;;3.83;;
56381;SDS011;50261;51.150;4.470;2023-11-19T05:17:47;25.13;;;5.35;;
56381;SDS011;50261;51.150;4.470;2023-11-19T05:20:12;26.88;;;4.43;;
56381;SDS011;50261;51.150;4.470;2023-11-19T05:22:41;33.03;;;5.03;;
56381;SDS011;50261;51.150;4.470;2023-11-19T05:25:08;37.30;;;4.55;;
56381;SDS011;50261;51.150;4.470;2023-11-19T05:27:37;29.02;;;4.88;;
56381;SDS011;50261;51.150;4.470;2023-11-19T05:30:04;18.27;;;3.08;;
56381;SDS011;50261;51.150;4.470;2023-11-19T05:32:33;31.05;;;5.03;;
56381;SDS011;50261;51.150;4.470;2023-11-19T05:34:58;28.58;;;4.45;;
56381;SDS011;50261;51.150;4.470;2023-11-19T05:37:24;30.15;;;4.80;;
56381;SDS011;50261;51.150;4.470;2023-11-19T05:39:50;29.75;;;4.03;;
56381;SDS011;50261;51.150;4.470;2023-11-19T05:42:16;27.70;;;5.25;;
56381;SDS011;50261;51.150;4.470;2023-11-19T05:44:41;22.50;;;3.53;;
56381;SDS011;50261;51.150;4.470;2023-11-19T05:47:07;25.65;;;5.43;;
56381;SDS011;50261;51.150;4.470;2023-11-19T05:49:32;25.55;;;4.15;;
56381;SDS011;50261;51.150;4.470;2023-11-19T05:51:58;30.52;;;4.57;;
56381;SDS011;50261;51.150;4.470;2023-11-19T05:54:24;36.53;;;5.72;;
56381;SDS011;50261;51.150;4.470;2023-11-19T05:56:50;31.60;;;4.85;;
56381;SDS011;50261;51.150;4.470;2023-11-19T05:59:19;24.77;;;4.70;;
56381;SDS011;50261;51.150;4.470;2023-11-19T06:01:45;32.20;;;4.85;;
56381;SDS011;50261;51.150;4.470;2023-11-19T06:04:11;24.42;;;4.60;;
56381;SDS011;50261;51.150;4.470;2023-11-19T06:06:37;21.20;;;4.90;;
56381;SDS011;50261;51.150;4.470;2023-11-19T06:09:03;29.25;;;4.72;;
56381;SDS011;50261;51.150;4.470;2023-11-19T06:11:29;27.08;;;4.97;;
56381;SDS011;50261;51.150;4.470;2023-11-19T06:13:55;24.77;;;4.55;;
56381;SDS011;50261;51.150;4.470;2023-11-19T06:16:21;26.20;;;5.03;;
56381;SDS011;50261;51.150;4.470;2023-11-19T06:18:47;28.83;;;4.05;;
56381;SDS011;50261;51.150;4.470;2023-11-19T06:21:13;40.28;;;6.55;;
56381;SDS011;50261;51.150;4.470;2023-11-19T06:23:38;30.75;;;6.03;;
56381;SDS011;50261;51.150;4.470;2023-11-19T06:26:04;27.30;;;5.05;;
56381;SDS011;50261;51.150;4.470;2023-11-19T06:28:30;20.27;;;3.97;;
56381;SDS011;50261;51.150;4.470;2023-11-19T06:30:56;26.13;;;5.22;;
56381;SDS011;50261;51.150;4.470;2023-11-19T06:33:23;29.13;;;3.85;;
56381;SDS011;50261;51.150;4.470;2023-11-19T06:35:49;24.10;;;4.53;;
56381;SDS011;50261;51.150;4.470;2023-11-19T06:38:15;31.73;;;5.18;;
56381;SDS011;50261;51.150;4.470;2023-11-19T06:40:41;25.67;;;4.38;;
56381;SDS011;50261;51.150;4.470;2023-11-19T06:43:06;30.23;;;4.18;;
56381;SDS011;50261;51.150;4.470;2023-11-19T06:45:34;27.70;;;5.07;;
56381;SDS011;50261;51.150;4.470;2023-11-19T06:48:03;29.67;;;3.50;;
56381;SDS011;50261;51.150;4.470;2023-11-19T06:50:30;31.67;;;4.22;;
56381;SDS011;50261;51.150;4.470;2023-11-19T06:52:56;27.98;;;5.72;;
56381;SDS011;50261;51.150;4.470;2023-11-19T06:55:21;28.08;;;4.22;;
56381;SDS011;50261;51.150;4.470;2023-11-19T06:57:47;22.75;;;4.60;;
56381;SDS011;50261;51.150;4.470;2023-11-19T07:00:13;30.25;;;4.75;;
56381;SDS011;50261;51.150;4.470;2023-11-19T07:02:38;28.40;;;4.75;;
56381;SDS011;50261;51.150;4.470;2023-11-19T07:05:05;28.88;;;5.10;;
56381;SDS011;50261;51.150;4.470;2023-11-19T07:07:31;27.92;;;4.47;;
56381;SDS011;50261;51.150;4.470;2023-11-19T07:09:58;33.00;;;4.85;;
56381;SDS011;50261;51.150;4.470;2023-11-19T07:12:23;35.28;;;5.90;;
56381;SDS011;50261;51.150;4.470;2023-11-19T07:14:52;25.73;;;4.30;;
56381;SDS011;50261;51.150;4.470;2023-11-19T07:17:18;32.80;;;3.47;;
56381;SDS011;50261;51.150;4.470;2023-11-19T07:19:44;34.55;;;4.95;;
56381;SDS011;50261;51.150;4.470;2023-11-19T07:22:10;31.17;;;4.80;;
56381;SDS011;50261;51.150;4.470;2023-11-19T07:24:38;33.70;;;5.53;;
56381;SDS011;50261;51.150;4.470;2023-11-19T07:27:04;34.65;;;6.07;;
56381;SDS011;50261;51.150;4.470;2023-11-19T07:29:29;40.38;;;5.93;;
56381;SDS011;50261;51.150;4.470;2023-11-19T07:31:56;20.27;;;2.78;;
56381;SDS011;50261;51.150;4.470;2023-11-19T07:34:22;31.65;;;5.30;;
56381;SDS011;50261;51.150;4.470;2023-11-19T07:36:48;29.08;;;4.88;;
56381;SDS011;50261;51.150;4.470;2023-11-19T07:39:14;26.27;;;4.40;;
56381;SDS011;50261;51.150;4.470;2023-11-19T07:41:40;36.90;;;4.93;;
56381;SDS011;50261;51.150;4.470;2023-11-19T07:44:05;24.08;;;3.58;;
56381;SDS011;50261;51.150;4.470;2023-11-19T07:46:32;33.10;;;5.45;;
56381;SDS011;50261;51.150;4.470;2023-11-19T07:48:58;23.15;;;4.00;;
56381;SDS011;50261;51.150;4.470;2023-11-19T07:51:23;28.42;;;4.47;;
56381;SDS011;50261;51.150;4.470;2023-11-19T07:53:49;16.92;;;2.88;;
56381;SDS011;50261;51.150;4.470;2023-11-19T07:56:14;33.60;;;4.38;;
56381;SDS011;50261;51.150;4.470;2023-11-19T07:58:40;33.15;;;4.55;;
56381;SDS011;50261;51.150;4.470;2023-11-19T08:01:06;38.10;;;4.50;;
56381;SDS011;50261;51.150;4.470;2023-11-19T08:03:32;27.23;;;4.50;;
56381;SDS011;50261;51.150;4.470;2023-11-19T08:05:59;21.08;;;4.72;;
56381;SDS011;50261;51.150;4.470;2023-11-19T08:08:25;38.10;;;5.20;;
56381;SDS011;50261;51.150;4.470;2023-11-19T08:10:51;29.50;;;4.93;;
56381;SDS011;50261;51.150;4.470;2023-11-19T08:13:17;26.10;;;3.90;;
56381;SDS011;50261;51.150;4.470;2023-11-19T08:15:43;30.52;;;5.65;;
56381;SDS011;50261;51.150;4.470;2023-11-19T08:18:09;37.40;;;5.07;;
56381;SDS011;50261;51.150;4.470;2023-11-19T08:20:34;28.42;;;4.35;;
56381;SDS011;50261;51.150;4.470;2023-11-19T08:23:01;29.23;;;5.47;;
56381;SDS011;50261;51.150;4.470;2023-11-19T08:25:28;28.08;;;5.20;;
56381;SDS011;50261;51.150;4.470;2023-11-19T08:27:54;29.58;;;4.65;;
56381;SDS011;50261;51.150;4.470;2023-11-19T08:30:20;20.67;;;3.72;;
56381;SDS011;50261;51.150;4.470;2023-11-19T08:32:45;32.55;;;4.68;;
56381;SDS011;50261;51.150;4.470;2023-11-19T08:35:11;23.27;;;4.15;;
56381;SDS011;50261;51.150;4.470;2023-11-19T08:37:37;26.92;;;4.28;;
56381;SDS011;50261;51.150;4.470;2023-11-19T08:40:04;29.98;;;5.53;;
56381;SDS011;50261;51.150;4.470;2023-11-19T08:42:32;30.38;;;4.32;;
56381;SDS011;50261;51.150;4.470;2023-11-19T08:44:58;37.42;;;5.38;;
56381;SDS011;50261;51.150;4.470;2023-11-19T08:47:24;29.42;;;4.28;;
56381;SDS011;50261;51.150;4.470;2023-11-19T08:49:52;29.02;;;5.20;;
56381;SDS011;50261;51.150;4.470;2023-11-19T08:52:18;28.45;;;5.35;;
56381;SDS011;50261;51.150;4.470;2023-11-19T08:54:44;22.58;;;3.92;;
56381;SDS011;50261;51.150;4.470;2023-11-19T08:57:10;23.17;;;3.97;;
56381;SDS011;50261;51.150;4.470;2023-11-19T08:59:35;24.45;;;4.57;;
56381;SDS011;50261;51.150;4.470;2023-11-19T09:02:03;23.45;;;4.18;;
56381;SDS011;50261;51.150;4.470;2023-11-19T09:04:29;19.38;;;3.75;;
56381;SDS011;50261;51.150;4.470;2023-11-19T09:06:57;27.77;;;5.00;;
56381;SDS011;50261;51.150;4.470;2023-11-19T09:09:23;29.88;;;5.40;;
56381;SDS011;50261;51.150;4.470;2023-11-19T09:11:48;27.00;;;4.05;;
56381;SDS011;50261;51.150;4.470;2023-11-19T09:14:14;21.30;;;4.05;;
56381;SDS011;50261;51.150;4.470;2023-11-19T09:16:39;16.38;;;3.85;;
56381;SDS011;50261;51.150;4.470;2023-11-19T09:19:05;22.88;;;4.63;;
56381;SDS011;50261;51.150;4.470;2023-11-19T09:21:31;29.85;;;5.82;;
56381;SDS011;50261;51.150;4.470;2023-11-19T09:23:57;26.58;;;3.75;;
56381;SDS011;50261;51.150;4.470;2023-11-19T09:26:23;21.08;;;4.55;;
56381;SDS011;50261;51.150;4.470;2023-11-19T09:28:48;19.80;;;3.22;;
56381;SDS011;50261;51.150;4.470;2023-11-19T09:31:16;22.75;;;4.35;;
56381;SDS011;50261;51.150;4.470;2023-11-19T09:33:42;25.38;;;3.83;;
56381;SDS011;50261;51.150;4.470;2023-11-19T09:36:08;20.50;;;3.78;;
56381;SDS011;50261;51.150;4.470;2023-11-19T09:38:35;21.33;;;4.03;;
56381;SDS011;50261;51.150;4.470;2023-11-19T09:41:04;25.30;;;3.88;;
56381;SDS011;50261;51.150;4.470;2023-11-19T09:43:33;17.00;;;4.22;;
56381;SDS011;50261;51.150;4.470;2023-11-19T09:45:59;21.10;;;4.45;;
56381;SDS011;50261;51.150;4.470;2023-11-19T09:48:30;25.45;;;4.45;;
56381;SDS011;50261;51.150;4.470;2023-11-19T09:50:56;21.20;;;3.92;;
56381;SDS011;50261;51.150;4.470;2023-11-19T09:53:23;20.75;;;3.35;;
56381;SDS011;50261;51.150;4.470;2023-11-19T09:55:49;20.90;;;4.00;;
56381;SDS011;50261;51.150;4.470;2023-11-19T09:58:15;27.58;;;4.35;;
56381;SDS011;50261;51.150;4.470;2023-11-19T10:00:40;15.00;;;2.65;;
56381;SDS011;50261;51.150;4.470;2023-11-19T10:03:07;16.63;;;2.42;;
56381;SDS011;50261;51.150;4.470;2023-11-19T10:05:33;24.00;;;3.70;;
56381;SDS011;50261;51.150;4.470;2023-11-19T10:07:58;27.17;;;3.45;;
56381;SDS011;50261;51.150;4.470;2023-11-19T10:10:24;21.77;;;3.95;;
56381;SDS011;50261;51.150;4.470;2023-11-19T10:12:52;21.20;;;4.30;;
56381;SDS011;50261;51.150;4.470;2023-11-19T10:15:22;25.98;;;3.90;;
56381;SDS011;50261;51.150;4.470;2023-11-19T10:17:50;22.52;;;3.80;;
56381;SDS011;50261;51.150;4.470;2023-11-19T10:20:15;18.95;;;3.45;;
56381;SDS011;50261;51.150;4.470;2023-11-19T10:22:41;21.85;;;4.03;;
56381;SDS011;50261;51.150;4.470;2023-11-19T10:25:23;13.27;;;2.30;;
56381;SDS011;50261;51.150;4.470;2023-11-19T10:27:49;17.52;;;3.17;;
56381;SDS011;50261;51.150;4.470;2023-11-19T10:30:25;18.02;;;3.85;;
56381;SDS011;50261;51.150;4.470;2023-11-19T10:33:07;26.50;;;3.80;;
56381;SDS011;50261;51.150;4.470;2023-11-19T10:35:34;15.32;;;3.05;;
56381;SDS011;50261;51.150;4.470;2023-11-19T10:38:00;17.40;;;3.40;;
56381;SDS011;50261;51.150;4.470;2023-11-19T10:40:39;15.00;;;2.65;;
56381;SDS011;50261;51.150;4.470;2023-11-19T10:43:08;14.52;;;3.50;;
56381;SDS011;50261;51.150;4.470;2023-11-19T10:45:37;26.70;;;4.10;;
56381;SDS011;50261;51.150;4.470;2023-11-19T10:48:04;18.00;;;4.10;;
56381;SDS011;50261;51.150;4.470;2023-11-19T10:50:36;18.67;;;3.22;;
56381;SDS011;50261;51.150;4.470;2023-11-19T10:53:03;21.95;;;4.40;;
56381;SDS011;50261;51.150;4.470;2023-11-19T10:55:29;23.38;;;3.95;;
56381;SDS011;50261;51.150;4.470;2023-11-19T10:57:59;16.85;;;3.70;;
56381;SDS011;50261;51.150;4.470;2023-11-19T11:00:25;20.85;;;4.68;;
56381;SDS011;50261;51.150;4.470;2023-11-19T11:02:54;23.88;;;4.10;;
56381;SDS011;50261;51.150;4.470;2023-11-19T11:05:21;26.35;;;4.18;;
56381;SDS011;50261;51.150;4.470;2023-11-19T11:07:47;25.02;;;4.22;;
56381;SDS011;50261;51.150;4.470;2023-11-19T11:10:14;23.45;;;4.07;;
56381;SDS011;50261;51.150;4.470;2023-11-19T11:12:41;24.63;;;4.78;;
56381;SDS011;50261;51.150;4.470;2023-11-19T11:15:10;11.45;;;2.35;;
56381;SDS011;50261;51.150;4.470;2023-11-19T11:17:38;26.33;;;4.38;;
56381;SDS011;50261;51.150;4.470;2023-11-19T11:20:05;11.45;;;2.53;;
56381;SDS011;50261;51.150;4.470;2023-11-19T11:22:33;19.40;;;3.58;;
56381;SDS011;50261;51.150;4.470;2023-11-19T11:25:08;16.45;;;3.00;;
56381;SDS011;50261;51.150;4.470;2023-11-19T11:38:04;24.10;;;3.92;;
56381;SDS011;50261;51.150;4.470;2023-11-19T11:40:32;22.15;;;3.90;;
56381;SDS011;50261;51.150;4.470;2023-11-19T11:42:57;16.08;;;3.25;;
56381;SDS011;50261;51.150;4.470;2023-11-19T11:45:35;13.77;;;2.83;;
56381;SDS011;50261;51.150;4.470;2023-11-19T11:50:30;20.65;;;3.95;;
56381;SDS011;50261;51.150;4.470;2023-11-19T11:55:25;13.82;;;3.42;;
56381;SDS011;50261;51.150;4.470;2023-11-19T11:57:51;18.80;;;3.75;;
56381;SDS011;50261;51.150;4.470;2023-11-19T12:02:57;20.65;;;3.55;;
56381;SDS011;50261;51.150;4.470;2023-11-19T12:05:24;14.77;;;2.35;;
56381;SDS011;50261;51.150;4.470;2023-11-19T12:07:55;20.38;;;2.90;;
56381;SDS011;50261;51.150;4.470;2023-11-19T12:10:24;13.10;;;2.95;;
56381;SDS011;50261;51.150;4.470;2023-11-19T12:12:52;22.95;;;3.45;;
56381;SDS011;50261;51.150;4.470;2023-11-19T12:15:18;21.08;;;4.50;;
56381;SDS011;50261;51.150;4.470;2023-11-19T12:17:48;20.80;;;4.18;;
56381;SDS011;50261;51.150;4.470;2023-11-19T12:20:17;27.33;;;5.65;;
56381;SDS011;50261;51.150;4.470;2023-11-19T12:22:44;22.33;;;3.97;;
56381;SDS011;50261;51.150;4.470;2023-11-19T12:25:10;20.90;;;3.85;;
56381;SDS011;50261;51.150;4.470;2023-11-19T12:27:37;39.38;;;6.10;;
56381;SDS011;50261;51.150;4.470;2023-11-19T12:30:04;34.22;;;5.50;;
56381;SDS011;50261;51.150;4.470;2023-11-19T12:32:42;40.47;;;5.13;;
56381;SDS011;50261;51.150;4.470;2023-11-19T12:35:08;29.33;;;4.25;;
56381;SDS011;50261;51.150;4.470;2023-11-19T12:37:44;24.23;;;4.15;;
56381;SDS011;50261;51.150;4.470;2023-11-19T12:40:16;35.83;;;5.72;;
56381;SDS011;50261;51.150;4.470;2023-11-19T12:42:45;30.50;;;4.68;;
56381;SDS011;50261;51.150;4.470;2023-11-19T12:45:11;34.85;;;5.70;;
56381;SDS011;50261;51.150;4.470;2023-11-19T12:47:38;26.38;;;4.38;;
56381;SDS011;50261;51.150;4.470;2023-11-19T12:50:04;27.08;;;5.03;;
56381;SDS011;50261;51.150;4.470;2023-11-19T12:52:30;29.95;;;5.10;;
56381;SDS011;50261;51.150;4.470;2023-11-19T12:54:55;27.30;;;4.90;;
56381;SDS011;50261;51.150;4.470;2023-11-19T12:57:35;22.05;;;4.00;;
56381;SDS011;50261;51.150;4.470;2023-11-19T13:00:01;31.83;;;5.43;;
56381;SDS011;50261;51.150;4.470;2023-11-19T13:02:45;27.75;;;3.75;;
56381;SDS011;50261;51.150;4.470;2023-11-19T13:07:57;37.80;;;4.55;;
56381;SDS011;50261;51.150;4.470;2023-11-19T13:10:23;29.00;;;3.17;;
56381;SDS011;50261;51.150;4.470;2023-11-19T13:15:27;22.67;;;3.33;;
56381;SDS011;50261;51.150;4.470;2023-11-19T13:17:52;27.42;;;3.47;;
56381;SDS011;50261;51.150;4.470;2023-11-19T13:20:18;28.13;;;4.53;;
56381;SDS011;50261;51.150;4.470;2023-11-19T13:25:40;20.33;;;3.55;;
56381;SDS011;50261;51.150;4.470;2023-11-19T13:28:06;30.05;;;3.85;;
56381;SDS011;50261;51.150;4.470;2023-11-19T13:30:31;20.88;;;3.55;;
56381;SDS011;50261;51.150;4.470;2023-11-19T13:32:57;27.90;;;4.45;;
56381;SDS011;50261;51.150;4.470;2023-11-19T13:35:23;23.60;;;4.82;;
56381;SDS011;50261;51.150;4.470;2023-11-19T13:37:48;22.02;;;3.97;;
56381;SDS011;50261;51.150;4.470;2023-11-19T13:40:14;16.17;;;4.68;;
56381;SDS011;50261;51.150;4.470;2023-11-19T13:42:43;12.60;;;3.08;;
56381;SDS011;50261;51.150;4.470;2023-11-19T13:45:12;22.13;;;3.20;;
56381;SDS011;50261;51.150;4.470;2023-11-19T13:47:39;18.42;;;2.78;;
56381;SDS011;50261;51.150;4.470;2023-11-19T13:50:07;19.42;;;3.70;;
56381;SDS011;50261;51.150;4.470;2023-11-19T13:52:33;21.30;;;3.78;;
56381;SDS011;50261;51.150;4.470;2023-11-19T13:54:59;17.13;;;3.63;;
56381;SDS011;50261;51.150;4.470;2023-11-19T13:57:24;18.33;;;3.60;;
56381;SDS011;50261;51.150;4.470;2023-11-19T13:59:50;22.10;;;3.38;;
56381;SDS011;50261;51.150;4.470;2023-11-19T14:02:15;23.10;;;3.50;;
56381;SDS011;50261;51.150;4.470;2023-11-19T14:04:41;21.63;;;4.22;;
56381;SDS011;50261;51.150;4.470;2023-11-19T14:07:07;22.70;;;4.78;;
56381;SDS011;50261;51.150;4.470;2023-11-19T14:09:33;15.07;;;3.42;;
56381;SDS011;50261;51.150;4.470;2023-11-19T14:11:59;25.75;;;4.68;;
56381;SDS011;50261;51.150;4.470;2023-11-19T14:14:24;22.80;;;2.75;;
56381;SDS011;50261;51.150;4.470;2023-11-19T14:16:50;20.65;;;3.30;;
56381;SDS011;50261;51.150;4.470;2023-11-19T14:19:16;25.95;;;4.10;;
56381;SDS011;50261;51.150;4.470;2023-11-19T14:21:41;18.67;;;4.57;;
56381;SDS011;50261;51.150;4.470;2023-11-19T14:24:07;20.58;;;3.63;;
56381;SDS011;50261;51.150;4.470;2023-11-19T14:26:33;25.10;;;4.18;;
56381;SDS011;50261;51.150;4.470;2023-11-19T14:28:59;12.13;;;2.78;;
56381;SDS011;50261;51.150;4.470;2023-11-19T14:31:27;25.70;;;3.33;;
56381;SDS011;50261;51.150;4.470;2023-11-19T14:33:53;22.33;;;3.20;;
56381;SDS011;50261;51.150;4.470;2023-11-19T14:36:18;18.02;;;3.25;;
56381;SDS011;50261;51.150;4.470;2023-11-19T14:38:44;23.30;;;3.58;;
56381;SDS011;50261;51.150;4.470;2023-11-19T14:41:10;16.27;;;3.35;;
56381;SDS011;50261;51.150;4.470;2023-11-19T14:43:35;20.85;;;3.72;;
56381;SDS011;50261;51.150;4.470;2023-11-19T14:46:01;28.90;;;4.10;;
56381;SDS011;50261;51.150;4.470;2023-11-19T14:48:28;24.92;;;3.90;;
56381;SDS011;50261;51.150;4.470;2023-11-19T14:50:54;28.10;;;3.63;;
56381;SDS011;50261;51.150;4.470;2023-11-19T14:53:22;10.38;;;2.22;;
56381;SDS011;50261;51.150;4.470;2023-11-19T14:55:48;11.93;;;3.15;;
56381;SDS011;50261;51.150;4.470;2023-11-19T14:58:14;19.23;;;3.90;;
56381;SDS011;50261;51.150;4.470;2023-11-19T15:00:40;26.08;;;4.93;;
56381;SDS011;50261;51.150;4.470;2023-11-19T15:03:05;21.33;;;3.80;;